sensor_id;sensor_type;location;lat;lon;timestamp;P1;durP1;ratioP1;P2;durP2;ratioP2
29570;SDS011;16814;52.118;11.436;2024-03-02T00:00:08;97.90;;;45.95;;
29570;SDS011;16814;52.118;11.436;2024-03-02T00:02:40;99.82;;;46.03;;
29570;SDS011;16814;52.118;11.436;2024-03-02T00:05:06;94.95;;;45.80;;
29570;SDS011;16814;52.118;11.436;2024-03-02T00:07:32;92.25;;;45.03;;
29570;SDS011;16814;52.118;11.436;2024-03-02T00:09:58;90.97;;;43.43;;
29570;SDS011;16814;52.118;11.436;2024-03-02T00:12:24;94.73;;;44.80;;
29570;SDS011;16814;52.118;11.436;2024-03-02T00:14:50;91.88;;;45.08;;
29570;SDS011;16814;52.118;11.436;2024-03-02T00:17:24;97.63;;;47.77;;
29570;SDS011;16814;52.118;11.436;2024-03-02T00:19:50;97.80;;;47.70;;
29570;SDS011;16814;52.118;11.436;2024-03-02T00:22:17;99.20;;;46.85;;
29570;SDS011;16814;52.118;11.436;2024-03-02T00:24:43;101.23;;;47.77;;
29570;SDS011;16814;52.118;11.436;2024-03-02T00:27:08;105.15;;;48.50;;
29570;SDS011;16814;52.118;11.436;2024-03-02T00:29:40;103.27;;;49.30;;
29570;SDS011;16814;52.118;11.436;2024-03-02T00:32:10;98.70;;;46.13;;
29570;SDS011;16814;52.118;11.436;2024-03-02T00:34:38;93.13;;;45.25;;
29570;SDS011;16814;52.118;11.436;2024-03-02T00:37:04;90.72;;;45.17;;
29570;SDS011;16814;52.118;11.436;2024-03-02T00:39:30;97.18;;;46.03;;
29570;SDS011;16814;52.118;11.436;2024-03-02T00:41:57;98.30;;;47.78;;
29570;SDS011;16814;52.118;11.436;2024-03-02T00:44:23;98.43;;;47.10;;
29570;SDS011;16814;52.118;11.436;2024-03-02T00:46:51;100.43;;;46.13;;
29570;SDS011;16814;52.118;11.436;2024-03-02T00:49:22;101.97;;;49.38;;
29570;SDS011;16814;52.118;11.436;2024-03-02T00:51:49;89.13;;;45.95;;
29570;SDS011;16814;52.118;11.436;2024-03-02T00:54:19;87.00;;;44.30;;
29570;SDS011;16814;52.118;11.436;2024-03-02T00:56:49;92.68;;;45.88;;
29570;SDS011;16814;52.118;11.436;2024-03-02T00:59:16;92.97;;;46.00;;
29570;SDS011;16814;52.118;11.436;2024-03-02T01:01:44;93.07;;;45.20;;
29570;SDS011;16814;52.118;11.436;2024-03-02T01:04:09;91.15;;;45.00;;
29570;SDS011;16814;52.118;11.436;2024-03-02T01:06:35;87.87;;;44.60;;
29570;SDS011;16814;52.118;11.436;2024-03-02T01:09:01;90.50;;;44.13;;
29570;SDS011;16814;52.118;11.436;2024-03-02T01:11:27;90.13;;;43.85;;
29570;SDS011;16814;52.118;11.436;2024-03-02T01:13:53;86.72;;;44.60;;
29570;SDS011;16814;52.118;11.436;2024-03-02T01:16:19;84.67;;;43.10;;
29570;SDS011;16814;52.118;11.436;2024-03-02T01:18:44;85.57;;;42.55;;
29570;SDS011;16814;52.118;11.436;2024-03-02T01:21:10;90.97;;;44.27;;
29570;SDS011;16814;52.118;11.436;2024-03-02T01:23:36;88.90;;;44.25;;
29570;SDS011;16814;52.118;11.436;2024-03-02T01:26:01;92.90;;;45.57;;
29570;SDS011;16814;52.118;11.436;2024-03-02T01:28:27;86.60;;;44.17;;
29570;SDS011;16814;52.118;11.436;2024-03-02T01:30:52;83.63;;;44.40;;
29570;SDS011;16814;52.118;11.436;2024-03-02T01:33:18;92.30;;;44.97;;
29570;SDS011;16814;52.118;11.436;2024-03-02T01:35:44;94.53;;;47.03;;
29570;SDS011;16814;52.118;11.436;2024-03-02T01:38:10;89.20;;;44.60;;
29570;SDS011;16814;52.118;11.436;2024-03-02T01:40:36;90.93;;;44.17;;
29570;SDS011;16814;52.118;11.436;2024-03-02T01:43:06;88.75;;;45.35;;
29570;SDS011;16814;52.118;11.436;2024-03-02T01:45:32;90.80;;;45.10;;
29570;SDS011;16814;52.118;11.436;2024-03-02T01:47:58;83.72;;;43.28;;
29570;SDS011;16814;52.118;11.436;2024-03-02T01:50:25;84.22;;;43.28;;
29570;SDS011;16814;52.118;11.436;2024-03-02T01:52:56;93.70;;;45.92;;
29570;SDS011;16814;52.118;11.436;2024-03-02T01:55:22;95.75;;;45.65;;
29570;SDS011;16814;52.118;11.436;2024-03-02T01:57:48;93.25;;;46.33;;
29570;SDS011;16814;52.118;11.436;2024-03-02T02:00:16;89.33;;;44.17;;
29570;SDS011;16814;52.118;11.436;2024-03-02T02:02:42;80.73;;;42.33;;
29570;SDS011;16814;52.118;11.436;2024-03-02T02:05:08;99.10;;;46.85;;
29570;SDS011;16814;52.118;11.436;2024-03-02T02:07:34;94.90;;;47.00;;
29570;SDS011;16814;52.118;11.436;2024-03-02T02:10:00;101.53;;;47.38;;
29570;SDS011;16814;52.118;11.436;2024-03-02T02:12:26;88.57;;;46.10;;
29570;SDS011;16814;52.118;11.436;2024-03-02T02:14:52;91.10;;;45.90;;
29570;SDS011;16814;52.118;11.436;2024-03-02T02:17:18;90.10;;;47.27;;
29570;SDS011;16814;52.118;11.436;2024-03-02T02:19:43;89.70;;;44.13;;
29570;SDS011;16814;52.118;11.436;2024-03-02T02:22:09;87.07;;;44.93;;
29570;SDS011;16814;52.118;11.436;2024-03-02T02:24:35;93.93;;;43.83;;
29570;SDS011;16814;52.118;11.436;2024-03-02T02:27:01;93.78;;;44.83;;
29570;SDS011;16814;52.118;11.436;2024-03-02T02:29:27;84.27;;;43.50;;
29570;SDS011;16814;52.118;11.436;2024-03-02T02:31:52;94.47;;;44.95;;
29570;SDS011;16814;52.118;11.436;2024-03-02T02:34:18;95.07;;;45.20;;
29570;SDS011;16814;52.118;11.436;2024-03-02T02:36:43;85.50;;;43.83;;
29570;SDS011;16814;52.118;11.436;2024-03-02T02:39:13;86.40;;;41.50;;
29570;SDS011;16814;52.118;11.436;2024-03-02T02:41:41;82.85;;;41.90;;
29570;SDS011;16814;52.118;11.436;2024-03-02T02:44:07;90.77;;;44.07;;
29570;SDS011;16814;52.118;11.436;2024-03-02T02:46:32;82.38;;;43.00;;
29570;SDS011;16814;52.118;11.436;2024-03-02T02:48:58;91.77;;;44.33;;
29570;SDS011;16814;52.118;11.436;2024-03-02T02:51:23;97.63;;;47.38;;
29570;SDS011;16814;52.118;11.436;2024-03-02T02:53:50;104.45;;;49.60;;
29570;SDS011;16814;52.118;11.436;2024-03-02T02:56:16;97.00;;;46.22;;
29570;SDS011;16814;52.118;11.436;2024-03-02T02:58:42;97.15;;;46.60;;
29570;SDS011;16814;52.118;11.436;2024-03-02T03:01:07;92.27;;;44.57;;
29570;SDS011;16814;52.118;11.436;2024-03-02T03:03:33;88.10;;;45.57;;
29570;SDS011;16814;52.118;11.436;2024-03-02T03:05:59;92.00;;;44.83;;
29570;SDS011;16814;52.118;11.436;2024-03-02T03:08:25;94.82;;;46.03;;
29570;SDS011;16814;52.118;11.436;2024-03-02T03:10:50;93.87;;;44.43;;
29570;SDS011;16814;52.118;11.436;2024-03-02T03:13:16;88.32;;;44.63;;
29570;SDS011;16814;52.118;11.436;2024-03-02T03:15:42;88.67;;;44.47;;
29570;SDS011;16814;52.118;11.436;2024-03-02T03:18:07;89.10;;;43.72;;
29570;SDS011;16814;52.118;11.436;2024-03-02T03:20:35;85.93;;;42.53;;
29570;SDS011;16814;52.118;11.436;2024-03-02T03:23:01;88.43;;;44.30;;
29570;SDS011;16814;52.118;11.436;2024-03-02T03:25:27;81.17;;;42.43;;
29570;SDS011;16814;52.118;11.436;2024-03-02T03:27:52;80.53;;;40.90;;
29570;SDS011;16814;52.118;11.436;2024-03-02T03:30:18;79.93;;;40.87;;
29570;SDS011;16814;52.118;11.436;2024-03-02T03:32:44;79.88;;;40.72;;
29570;SDS011;16814;52.118;11.436;2024-03-02T03:35:09;82.83;;;42.17;;
29570;SDS011;16814;52.118;11.436;2024-03-02T03:37:35;85.75;;;43.47;;
29570;SDS011;16814;52.118;11.436;2024-03-02T03:40:04;84.38;;;41.67;;
29570;SDS011;16814;52.118;11.436;2024-03-02T03:42:38;85.80;;;43.17;;
29570;SDS011;16814;52.118;11.436;2024-03-02T03:45:04;80.20;;;40.72;;
29570;SDS011;16814;52.118;11.436;2024-03-02T03:47:33;88.68;;;43.72;;
29570;SDS011;16814;52.118;11.436;2024-03-02T03:49:59;78.20;;;41.10;;
29570;SDS011;16814;52.118;11.436;2024-03-02T03:52:25;97.47;;;44.35;;
29570;SDS011;16814;52.118;11.436;2024-03-02T03:54:50;79.60;;;40.67;;
29570;SDS011;16814;52.118;11.436;2024-03-02T03:57:16;86.93;;;42.95;;
29570;SDS011;16814;52.118;11.436;2024-03-02T03:59:42;83.95;;;42.97;;
29570;SDS011;16814;52.118;11.436;2024-03-02T04:02:08;82.90;;;42.47;;
29570;SDS011;16814;52.118;11.436;2024-03-02T04:04:35;90.30;;;42.93;;
29570;SDS011;16814;52.118;11.436;2024-03-02T04:07:00;79.68;;;40.42;;
29570;SDS011;16814;52.118;11.436;2024-03-02T04:09:26;90.35;;;40.95;;
29570;SDS011;16814;52.118;11.436;2024-03-02T04:11:52;82.93;;;41.13;;
29570;SDS011;16814;52.118;11.436;2024-03-02T04:14:18;75.90;;;38.83;;
29570;SDS011;16814;52.118;11.436;2024-03-02T04:16:44;77.30;;;40.33;;
29570;SDS011;16814;52.118;11.436;2024-03-02T04:19:09;74.90;;;39.07;;
29570;SDS011;16814;52.118;11.436;2024-03-02T04:21:35;74.82;;;37.85;;
29570;SDS011;16814;52.118;11.436;2024-03-02T04:24:00;78.83;;;39.90;;
29570;SDS011;16814;52.118;11.436;2024-03-02T04:26:26;72.17;;;37.63;;
29570;SDS011;16814;52.118;11.436;2024-03-02T04:28:52;70.28;;;36.38;;
29570;SDS011;16814;52.118;11.436;2024-03-02T04:31:18;74.03;;;37.60;;
29570;SDS011;16814;52.118;11.436;2024-03-02T04:33:45;68.95;;;35.85;;
29570;SDS011;16814;52.118;11.436;2024-03-02T04:36:10;73.27;;;37.63;;
29570;SDS011;16814;52.118;11.436;2024-03-02T04:38:36;67.45;;;36.53;;
29570;SDS011;16814;52.118;11.436;2024-03-02T04:41:03;74.18;;;38.33;;
29570;SDS011;16814;52.118;11.436;2024-03-02T04:43:31;83.20;;;41.80;;
29570;SDS011;16814;52.118;11.436;2024-03-02T04:45:56;89.25;;;41.58;;
29570;SDS011;16814;52.118;11.436;2024-03-02T04:48:23;82.47;;;42.13;;
29570;SDS011;16814;52.118;11.436;2024-03-02T04:50:48;76.23;;;39.10;;
29570;SDS011;16814;52.118;11.436;2024-03-02T04:53:14;78.18;;;39.55;;
29570;SDS011;16814;52.118;11.436;2024-03-02T04:55:40;83.00;;;41.70;;
29570;SDS011;16814;52.118;11.436;2024-03-02T04:58:05;79.30;;;40.33;;
29570;SDS011;16814;52.118;11.436;2024-03-02T05:00:31;86.87;;;41.93;;
29570;SDS011;16814;52.118;11.436;2024-03-02T05:02:57;87.30;;;41.30;;
29570;SDS011;16814;52.118;11.436;2024-03-02T05:05:23;90.80;;;44.20;;
29570;SDS011;16814;52.118;11.436;2024-03-02T05:07:49;93.63;;;44.40;;
29570;SDS011;16814;52.118;11.436;2024-03-02T05:10:14;95.53;;;44.50;;
29570;SDS011;16814;52.118;11.436;2024-03-02T05:12:40;93.67;;;45.67;;
29570;SDS011;16814;52.118;11.436;2024-03-02T05:15:09;92.30;;;45.95;;
29570;SDS011;16814;52.118;11.436;2024-03-02T05:17:36;104.13;;;48.58;;
29570;SDS011;16814;52.118;11.436;2024-03-02T05:20:05;113.47;;;50.75;;
29570;SDS011;16814;52.118;11.436;2024-03-02T05:22:33;110.85;;;51.17;;
29570;SDS011;16814;52.118;11.436;2024-03-02T05:24:59;116.47;;;53.08;;
29570;SDS011;16814;52.118;11.436;2024-03-02T05:27:25;117.87;;;53.23;;
29570;SDS011;16814;52.118;11.436;2024-03-02T05:29:51;117.10;;;54.03;;
29570;SDS011;16814;52.118;11.436;2024-03-02T05:32:17;111.68;;;53.30;;
29570;SDS011;16814;52.118;11.436;2024-03-02T05:34:43;119.20;;;53.10;;
29570;SDS011;16814;52.118;11.436;2024-03-02T05:37:08;110.18;;;51.70;;
29570;SDS011;16814;52.118;11.436;2024-03-02T05:39:34;106.67;;;49.60;;
29570;SDS011;16814;52.118;11.436;2024-03-02T05:41:59;100.03;;;48.17;;
29570;SDS011;16814;52.118;11.436;2024-03-02T05:44:25;105.50;;;48.92;;
29570;SDS011;16814;52.118;11.436;2024-03-02T05:46:51;102.73;;;49.90;;
29570;SDS011;16814;52.118;11.436;2024-03-02T05:49:16;102.50;;;49.90;;
29570;SDS011;16814;52.118;11.436;2024-03-02T05:51:42;105.63;;;49.07;;
29570;SDS011;16814;52.118;11.436;2024-03-02T05:54:07;106.30;;;49.45;;
29570;SDS011;16814;52.118;11.436;2024-03-02T05:56:33;106.20;;;49.73;;
29570;SDS011;16814;52.118;11.436;2024-03-02T05:58:59;114.97;;;51.13;;
29570;SDS011;16814;52.118;11.436;2024-03-02T06:01:47;116.68;;;51.85;;
29570;SDS011;16814;52.118;11.436;2024-03-02T06:04:15;107.18;;;48.65;;
29570;SDS011;16814;52.118;11.436;2024-03-02T06:06:41;115.43;;;50.80;;
29570;SDS011;16814;52.118;11.436;2024-03-02T06:09:08;107.90;;;49.55;;
29570;SDS011;16814;52.118;11.436;2024-03-02T06:11:36;105.80;;;47.93;;
29570;SDS011;16814;52.118;11.436;2024-03-02T06:14:03;95.07;;;46.13;;
29570;SDS011;16814;52.118;11.436;2024-03-02T06:16:30;100.07;;;47.10;;
29570;SDS011;16814;52.118;11.436;2024-03-02T06:18:55;100.65;;;45.72;;
29570;SDS011;16814;52.118;11.436;2024-03-02T06:21:23;99.80;;;47.78;;
29570;SDS011;16814;52.118;11.436;2024-03-02T06:23:48;91.72;;;44.00;;
29570;SDS011;16814;52.118;11.436;2024-03-02T06:26:14;99.67;;;45.20;;
29570;SDS011;16814;52.118;11.436;2024-03-02T06:28:40;94.90;;;44.10;;
29570;SDS011;16814;52.118;11.436;2024-03-02T06:31:05;95.13;;;44.93;;
29570;SDS011;16814;52.118;11.436;2024-03-02T06:33:31;90.70;;;45.13;;
29570;SDS011;16814;52.118;11.436;2024-03-02T06:35:57;90.60;;;43.60;;
29570;SDS011;16814;52.118;11.436;2024-03-02T06:38:22;90.00;;;43.10;;
29570;SDS011;16814;52.118;11.436;2024-03-02T06:40:48;90.20;;;44.60;;
29570;SDS011;16814;52.118;11.436;2024-03-02T06:43:13;91.67;;;44.13;;
29570;SDS011;16814;52.118;11.436;2024-03-02T06:45:39;87.65;;;44.30;;
29570;SDS011;16814;52.118;11.436;2024-03-02T06:48:05;96.03;;;44.37;;
29570;SDS011;16814;52.118;11.436;2024-03-02T06:50:31;80.95;;;41.38;;
29570;SDS011;16814;52.118;11.436;2024-03-02T06:52:56;83.77;;;42.53;;
29570;SDS011;16814;52.118;11.436;2024-03-02T06:55:22;81.75;;;41.13;;
29570;SDS011;16814;52.118;11.436;2024-03-02T06:57:49;76.18;;;38.55;;
29570;SDS011;16814;52.118;11.436;2024-03-02T07:00:15;73.65;;;39.10;;
29570;SDS011;16814;52.118;11.436;2024-03-02T07:02:42;79.25;;;40.83;;
29570;SDS011;16814;52.118;11.436;2024-03-02T07:05:09;88.65;;;44.05;;
29570;SDS011;16814;52.118;11.436;2024-03-02T07:07:36;95.15;;;48.97;;
29570;SDS011;16814;52.118;11.436;2024-03-02T07:10:03;85.80;;;46.53;;
29570;SDS011;16814;52.118;11.436;2024-03-02T07:12:35;85.65;;;47.40;;
29570;SDS011;16814;52.118;11.436;2024-03-02T07:15:01;87.30;;;47.37;;
29570;SDS011;16814;52.118;11.436;2024-03-02T07:17:30;78.25;;;44.05;;
29570;SDS011;16814;52.118;11.436;2024-03-02T07:19:56;78.47;;;39.55;;
29570;SDS011;16814;52.118;11.436;2024-03-02T07:22:22;73.40;;;38.65;;
29570;SDS011;16814;52.118;11.436;2024-03-02T07:24:48;71.00;;;37.27;;
29570;SDS011;16814;52.118;11.436;2024-03-02T07:27:14;67.17;;;35.70;;
29570;SDS011;16814;52.118;11.436;2024-03-02T07:29:40;71.28;;;37.38;;
29570;SDS011;16814;52.118;11.436;2024-03-02T07:32:07;74.53;;;38.90;;
29570;SDS011;16814;52.118;11.436;2024-03-02T07:34:33;82.57;;;39.85;;
29570;SDS011;16814;52.118;11.436;2024-03-02T07:36:59;79.90;;;40.55;;
29570;SDS011;16814;52.118;11.436;2024-03-02T07:39:25;72.32;;;36.65;;
29570;SDS011;16814;52.118;11.436;2024-03-02T07:41:51;79.23;;;40.13;;
29570;SDS011;16814;52.118;11.436;2024-03-02T07:44:17;73.63;;;38.15;;
29570;SDS011;16814;52.118;11.436;2024-03-02T07:46:44;70.95;;;37.17;;
29570;SDS011;16814;52.118;11.436;2024-03-02T07:49:11;69.40;;;34.85;;
29570;SDS011;16814;52.118;11.436;2024-03-02T07:51:38;67.15;;;36.97;;
29570;SDS011;16814;52.118;11.436;2024-03-02T07:54:04;67.95;;;37.05;;
29570;SDS011;16814;52.118;11.436;2024-03-02T07:56:30;70.57;;;36.73;;
29570;SDS011;16814;52.118;11.436;2024-03-02T07:58:56;64.93;;;34.78;;
29570;SDS011;16814;52.118;11.436;2024-03-02T08:01:25;59.33;;;33.60;;
29570;SDS011;16814;52.118;11.436;2024-03-02T08:04:00;58.60;;;32.77;;
29570;SDS011;16814;52.118;11.436;2024-03-02T08:06:29;57.05;;;32.30;;
29570;SDS011;16814;52.118;11.436;2024-03-02T08:08:55;63.58;;;34.25;;
29570;SDS011;16814;52.118;11.436;2024-03-02T08:11:21;60.50;;;33.38;;
29570;SDS011;16814;52.118;11.436;2024-03-02T08:13:47;58.47;;;30.90;;
29570;SDS011;16814;52.118;11.436;2024-03-02T08:16:17;63.40;;;31.90;;
29570;SDS011;16814;52.118;11.436;2024-03-02T08:18:48;55.60;;;30.92;;
29570;SDS011;16814;52.118;11.436;2024-03-02T08:21:14;59.22;;;31.42;;
29570;SDS011;16814;52.118;11.436;2024-03-02T08:23:40;56.92;;;29.80;;
29570;SDS011;16814;52.118;11.436;2024-03-02T08:26:07;55.15;;;30.42;;
29570;SDS011;16814;52.118;11.436;2024-03-02T08:28:36;51.40;;;29.63;;
29570;SDS011;16814;52.118;11.436;2024-03-02T08:31:02;46.50;;;27.90;;
29570;SDS011;16814;52.118;11.436;2024-03-02T08:33:28;47.90;;;27.67;;
29570;SDS011;16814;52.118;11.436;2024-03-02T08:35:54;46.33;;;27.53;;
29570;SDS011;16814;52.118;11.436;2024-03-02T08:38:21;48.87;;;27.13;;
29570;SDS011;16814;52.118;11.436;2024-03-02T08:40:46;45.42;;;27.02;;
29570;SDS011;16814;52.118;11.436;2024-03-02T08:43:12;45.90;;;26.57;;
29570;SDS011;16814;52.118;11.436;2024-03-02T08:45:38;45.60;;;27.20;;
29570;SDS011;16814;52.118;11.436;2024-03-02T08:48:05;46.08;;;27.63;;
29570;SDS011;16814;52.118;11.436;2024-03-02T08:50:33;47.92;;;27.17;;
29570;SDS011;16814;52.118;11.436;2024-03-02T08:52:59;47.33;;;26.60;;
29570;SDS011;16814;52.118;11.436;2024-03-02T08:55:26;43.72;;;26.05;;
29570;SDS011;16814;52.118;11.436;2024-03-02T08:57:51;45.20;;;26.07;;
29570;SDS011;16814;52.118;11.436;2024-03-02T09:00:17;43.55;;;26.90;;
29570;SDS011;16814;52.118;11.436;2024-03-02T09:02:44;49.45;;;26.05;;
29570;SDS011;16814;52.118;11.436;2024-03-02T09:05:10;41.83;;;25.08;;
29570;SDS011;16814;52.118;11.436;2024-03-02T09:07:35;48.63;;;26.70;;
29570;SDS011;16814;52.118;11.436;2024-03-02T09:10:03;45.43;;;26.07;;
29570;SDS011;16814;52.118;11.436;2024-03-02T09:12:29;42.95;;;25.65;;
29570;SDS011;16814;52.118;11.436;2024-03-02T09:14:54;42.88;;;25.23;;
29570;SDS011;16814;52.118;11.436;2024-03-02T09:17:20;42.73;;;25.00;;
29570;SDS011;16814;52.118;11.436;2024-03-02T09:19:45;43.90;;;25.03;;
29570;SDS011;16814;52.118;11.436;2024-03-02T09:22:12;45.90;;;24.90;;
29570;SDS011;16814;52.118;11.436;2024-03-02T09:24:38;42.77;;;24.73;;
29570;SDS011;16814;52.118;11.436;2024-03-02T09:27:03;40.85;;;24.73;;
29570;SDS011;16814;52.118;11.436;2024-03-02T09:29:30;45.63;;;25.10;;
29570;SDS011;16814;52.118;11.436;2024-03-02T09:31:56;41.90;;;24.77;;
29570;SDS011;16814;52.118;11.436;2024-03-02T09:34:21;41.78;;;24.40;;
29570;SDS011;16814;52.118;11.436;2024-03-02T09:36:47;44.13;;;24.80;;
29570;SDS011;16814;52.118;11.436;2024-03-02T09:39:13;42.95;;;24.80;;
29570;SDS011;16814;52.118;11.436;2024-03-02T09:41:39;48.05;;;25.90;;
29570;SDS011;16814;52.118;11.436;2024-03-02T09:44:05;45.97;;;25.63;;
29570;SDS011;16814;52.118;11.436;2024-03-02T09:46:31;43.67;;;26.15;;
29570;SDS011;16814;52.118;11.436;2024-03-02T09:48:57;46.67;;;26.58;;
29570;SDS011;16814;52.118;11.436;2024-03-02T09:51:23;42.53;;;25.00;;
29570;SDS011;16814;52.118;11.436;2024-03-02T09:53:48;43.15;;;25.95;;
29570;SDS011;16814;52.118;11.436;2024-03-02T09:56:15;40.70;;;24.67;;
29570;SDS011;16814;52.118;11.436;2024-03-02T09:58:44;44.65;;;27.52;;
29570;SDS011;16814;52.118;11.436;2024-03-02T10:01:09;49.17;;;26.52;;
29570;SDS011;16814;52.118;11.436;2024-03-02T10:03:36;46.10;;;26.90;;
29570;SDS011;16814;52.118;11.436;2024-03-02T10:08:55;48.72;;;27.98;;
29570;SDS011;16814;52.118;11.436;2024-03-02T10:11:31;51.07;;;28.67;;
29570;SDS011;16814;52.118;11.436;2024-03-02T10:16:33;46.77;;;26.87;;
29570;SDS011;16814;52.118;11.436;2024-03-02T10:19:14;45.83;;;26.45;;
29570;SDS011;16814;52.118;11.436;2024-03-02T10:21:46;50.00;;;26.27;;
29570;SDS011;16814;52.118;11.436;2024-03-02T10:24:14;49.70;;;27.38;;
29570;SDS011;16814;52.118;11.436;2024-03-02T10:26:40;47.60;;;25.92;;
29570;SDS011;16814;52.118;11.436;2024-03-02T10:29:07;45.92;;;25.55;;
29570;SDS011;16814;52.118;11.436;2024-03-02T10:31:35;47.85;;;26.80;;
29570;SDS011;16814;52.118;11.436;2024-03-02T10:34:02;45.05;;;26.38;;
29570;SDS011;16814;52.118;11.436;2024-03-02T10:36:28;41.30;;;24.98;;
29570;SDS011;16814;52.118;11.436;2024-03-02T10:38:56;45.17;;;25.38;;
29570;SDS011;16814;52.118;11.436;2024-03-02T10:41:23;46.30;;;25.23;;
29570;SDS011;16814;52.118;11.436;2024-03-02T10:43:52;42.38;;;24.98;;
29570;SDS011;16814;52.118;11.436;2024-03-02T10:46:24;43.05;;;23.95;;
29570;SDS011;16814;52.118;11.436;2024-03-02T10:48:55;39.80;;;23.67;;
29570;SDS011;16814;52.118;11.436;2024-03-02T10:51:24;41.77;;;23.30;;
29570;SDS011;16814;52.118;11.436;2024-03-02T10:53:56;41.83;;;22.67;;
29570;SDS011;16814;52.118;11.436;2024-03-02T10:56:33;42.05;;;23.70;;
29570;SDS011;16814;52.118;11.436;2024-03-02T10:59:10;43.65;;;24.13;;
29570;SDS011;16814;52.118;11.436;2024-03-02T11:01:47;39.30;;;23.30;;
29570;SDS011;16814;52.118;11.436;2024-03-02T11:04:15;40.13;;;23.95;;
29570;SDS011;16814;52.118;11.436;2024-03-02T11:06:44;39.95;;;23.38;;
29570;SDS011;16814;52.118;11.436;2024-03-02T11:09:14;42.97;;;23.85;;
29570;SDS011;16814;52.118;11.436;2024-03-02T11:11:42;41.85;;;23.05;;
29570;SDS011;16814;52.118;11.436;2024-03-02T11:14:13;37.40;;;21.65;;
29570;SDS011;16814;52.118;11.436;2024-03-02T11:16:41;38.42;;;23.05;;
29570;SDS011;16814;52.118;11.436;2024-03-02T11:19:14;37.70;;;22.27;;
29570;SDS011;16814;52.118;11.436;2024-03-02T11:21:41;35.57;;;21.60;;
29570;SDS011;16814;52.118;11.436;2024-03-02T11:26:49;37.08;;;21.70;;
29570;SDS011;16814;52.118;11.436;2024-03-02T11:32:05;40.47;;;23.25;;
29570;SDS011;16814;52.118;11.436;2024-03-02T11:34:38;38.83;;;23.25;;
29570;SDS011;16814;52.118;11.436;2024-03-02T11:37:10;37.42;;;22.40;;
29570;SDS011;16814;52.118;11.436;2024-03-02T11:39:37;35.63;;;22.25;;
29570;SDS011;16814;52.118;11.436;2024-03-02T11:42:05;38.42;;;22.58;;
29570;SDS011;16814;52.118;11.436;2024-03-02T11:44:33;36.55;;;21.98;;
29570;SDS011;16814;52.118;11.436;2024-03-02T11:47:00;35.13;;;21.03;;
29570;SDS011;16814;52.118;11.436;2024-03-02T11:49:37;38.75;;;21.77;;
29570;SDS011;16814;52.118;11.436;2024-03-02T11:52:06;35.87;;;20.60;;
29570;SDS011;16814;52.118;11.436;2024-03-02T11:54:34;34.97;;;21.35;;
29570;SDS011;16814;52.118;11.436;2024-03-02T11:57:04;33.63;;;20.47;;
29570;SDS011;16814;52.118;11.436;2024-03-02T11:59:33;41.23;;;21.90;;
29570;SDS011;16814;52.118;11.436;2024-03-02T12:01:59;35.72;;;21.20;;
29570;SDS011;16814;52.118;11.436;2024-03-02T12:04:25;38.30;;;22.02;;
29570;SDS011;16814;52.118;11.436;2024-03-02T12:06:54;36.17;;;20.92;;
29570;SDS011;16814;52.118;11.436;2024-03-02T12:09:21;34.22;;;20.05;;
29570;SDS011;16814;52.118;11.436;2024-03-02T12:11:47;36.03;;;20.02;;
29570;SDS011;16814;52.118;11.436;2024-03-02T12:14:12;36.43;;;20.83;;
29570;SDS011;16814;52.118;11.436;2024-03-02T12:16:38;33.33;;;20.43;;
29570;SDS011;16814;52.118;11.436;2024-03-02T12:19:05;32.50;;;19.58;;
29570;SDS011;16814;52.118;11.436;2024-03-02T12:21:31;33.20;;;20.10;;
29570;SDS011;16814;52.118;11.436;2024-03-02T12:23:57;33.50;;;19.98;;
29570;SDS011;16814;52.118;11.436;2024-03-02T12:26:22;34.40;;;21.10;;
29570;SDS011;16814;52.118;11.436;2024-03-02T12:28:49;34.37;;;22.33;;
29570;SDS011;16814;52.118;11.436;2024-03-02T12:31:15;33.50;;;20.17;;
29570;SDS011;16814;52.118;11.436;2024-03-02T12:33:40;34.20;;;21.52;;
29570;SDS011;16814;52.118;11.436;2024-03-02T12:36:09;35.15;;;21.25;;
29570;SDS011;16814;52.118;11.436;2024-03-02T12:38:37;36.53;;;22.70;;
29570;SDS011;16814;52.118;11.436;2024-03-02T12:41:03;33.45;;;20.60;;
29570;SDS011;16814;52.118;11.436;2024-03-02T12:43:30;37.63;;;22.00;;
29570;SDS011;16814;52.118;11.436;2024-03-02T12:45:59;36.07;;;21.33;;
29570;SDS011;16814;52.118;11.436;2024-03-02T12:48:25;35.33;;;20.33;;
29570;SDS011;16814;52.118;11.436;2024-03-02T12:50:50;36.13;;;20.63;;
29570;SDS011;16814;52.118;11.436;2024-03-02T12:53:16;41.03;;;23.83;;
29570;SDS011;16814;52.118;11.436;2024-03-02T12:55:42;49.13;;;30.83;;
29570;SDS011;16814;52.118;11.436;2024-03-02T12:58:16;39.35;;;23.42;;
29570;SDS011;16814;52.118;11.436;2024-03-02T13:00:42;70.95;;;40.67;;
29570;SDS011;16814;52.118;11.436;2024-03-02T13:03:08;146.03;;;79.80;;
29570;SDS011;16814;52.118;11.436;2024-03-02T13:05:33;37.35;;;23.42;;
29570;SDS011;16814;52.118;11.436;2024-03-02T13:08:00;48.10;;;27.00;;
29570;SDS011;16814;52.118;11.436;2024-03-02T13:10:28;36.90;;;20.55;;
29570;SDS011;16814;52.118;11.436;2024-03-02T13:12:54;197.15;;;91.20;;
29570;SDS011;16814;52.118;11.436;2024-03-02T13:15:21;186.82;;;91.03;;
29570;SDS011;16814;52.118;11.436;2024-03-02T13:17:46;40.63;;;24.87;;
29570;SDS011;16814;52.118;11.436;2024-03-02T13:20:12;34.70;;;20.57;;
29570;SDS011;16814;52.118;11.436;2024-03-02T13:22:39;32.15;;;20.45;;
29570;SDS011;16814;52.118;11.436;2024-03-02T13:25:04;32.87;;;20.50;;
29570;SDS011;16814;52.118;11.436;2024-03-02T13:27:30;35.08;;;19.92;;
29570;SDS011;16814;52.118;11.436;2024-03-02T13:29:57;37.23;;;21.10;;
29570;SDS011;16814;52.118;11.436;2024-03-02T13:32:23;36.13;;;21.63;;
29570;SDS011;16814;52.118;11.436;2024-03-02T13:34:50;34.47;;;20.05;;
29570;SDS011;16814;52.118;11.436;2024-03-02T13:37:16;34.25;;;20.60;;
29570;SDS011;16814;52.118;11.436;2024-03-02T13:39:42;34.30;;;20.07;;
29570;SDS011;16814;52.118;11.436;2024-03-02T13:42:08;34.95;;;20.35;;
29570;SDS011;16814;52.118;11.436;2024-03-02T13:44:34;34.97;;;19.70;;
29570;SDS011;16814;52.118;11.436;2024-03-02T13:47:00;35.58;;;20.60;;
29570;SDS011;16814;52.118;11.436;2024-03-02T13:49:26;37.53;;;21.30;;
29570;SDS011;16814;52.118;11.436;2024-03-02T13:51:59;33.05;;;19.80;;
29570;SDS011;16814;52.118;11.436;2024-03-02T13:54:27;32.63;;;20.00;;
29570;SDS011;16814;52.118;11.436;2024-03-02T13:56:53;33.00;;;20.60;;
29570;SDS011;16814;52.118;11.436;2024-03-02T13:59:19;32.53;;;18.50;;
29570;SDS011;16814;52.118;11.436;2024-03-02T14:01:45;29.13;;;18.10;;
29570;SDS011;16814;52.118;11.436;2024-03-02T14:04:10;33.10;;;18.67;;
29570;SDS011;16814;52.118;11.436;2024-03-02T14:06:36;32.57;;;19.40;;
29570;SDS011;16814;52.118;11.436;2024-03-02T14:09:02;36.40;;;21.73;;
29570;SDS011;16814;52.118;11.436;2024-03-02T14:11:28;36.03;;;20.23;;
29570;SDS011;16814;52.118;11.436;2024-03-02T14:13:53;46.20;;;28.13;;
29570;SDS011;16814;52.118;11.436;2024-03-02T14:16:19;40.23;;;24.30;;